createdAt,value
2024-02-13T00:00:13.218Z,1006.15
2024-02-13T00:01:12.565Z,1006.24
2024-02-13T00:02:12.572Z,1006.22
2024-02-13T00:03:12.569Z,1006.24
2024-02-13T00:04:12.506Z,1006.22
2024-02-13T00:05:12.564Z,1006.20
2024-02-13T00:06:12.486Z,1006.31
2024-02-13T00:07:12.506Z,1006.22
2024-02-13T00:08:12.744Z,1006.29
2024-02-13T00:09:12.485Z,1006.26
2024-02-13T00:10:12.554Z,1006.29
2024-02-13T00:11:12.446Z,1006.34
2024-02-13T00:12:12.453Z,1006.35
2024-02-13T00:13:12.458Z,1006.32
2024-02-13T00:14:12.449Z,1006.38
2024-02-13T00:15:12.385Z,1006.30
2024-02-13T00:16:12.374Z,1006.37
2024-02-13T00:17:12.391Z,1006.36
2024-02-13T00:18:12.430Z,1006.43
2024-02-13T00:19:12.378Z,1006.41
2024-02-13T00:20:12.365Z,1006.42
2024-02-13T00:21:12.316Z,1006.42
2024-02-13T00:22:12.304Z,1006.46
2024-02-13T00:23:12.406Z,1006.45
2024-02-13T00:24:12.304Z,1006.49
2024-02-13T00:25:12.284Z,1006.49
2024-02-13T00:26:12.355Z,1006.48
2024-02-13T00:27:12.263Z,1006.53
2024-02-13T00:28:12.295Z,1006.51
2024-02-13T00:29:12.290Z,1006.61
2024-02-13T00:30:12.233Z,1006.60
2024-02-13T00:31:12.214Z,1006.63
2024-02-13T00:32:12.218Z,1006.60
2024-02-13T00:33:12.319Z,1006.65
2024-02-13T00:34:12.228Z,1006.61
2024-02-13T00:35:12.240Z,1006.67
2024-02-13T00:36:12.161Z,1006.71
2024-02-13T00:37:12.184Z,1006.65
2024-02-13T00:38:12.165Z,1006.74
2024-02-13T00:39:12.186Z,1006.66
2024-02-13T00:40:12.169Z,1006.65
2024-02-13T00:41:12.139Z,1006.75
2024-02-13T00:42:12.103Z,1006.73
2024-02-13T00:43:12.099Z,1006.75
2024-02-13T00:44:12.136Z,1006.80
2024-02-13T00:45:12.516Z,1006.75
2024-02-13T00:46:12.068Z,1006.79
2024-02-13T00:47:12.077Z,1006.81
2024-02-13T00:48:12.082Z,1006.78
2024-02-13T00:49:12.074Z,1006.79
2024-02-13T00:50:12.108Z,1006.78
2024-02-13T00:51:12.041Z,1006.80
2024-02-13T00:52:11.983Z,1006.81
2024-02-13T00:53:12.005Z,1006.80
2024-02-13T00:54:12.048Z,1006.84
2024-02-13T00:55:11.993Z,1006.87
2024-02-13T00:56:11.994Z,1006.88
2024-02-13T00:57:11.931Z,1006.85
2024-02-13T00:58:11.926Z,1006.91
2024-02-13T00:59:12.146Z,1006.88
2024-02-13T01:00:12.601Z,1006.88
2024-02-13T01:01:11.932Z,1006.89
2024-02-13T01:02:11.942Z,1006.95
2024-02-13T01:03:11.874Z,1006.96
2024-02-13T01:04:11.934Z,1006.94
2024-02-13T01:05:11.955Z,1006.98
2024-02-13T01:06:11.875Z,1007.04
2024-02-13T01:07:11.827Z,1006.98
2024-02-13T01:08:11.932Z,1007.02
2024-02-13T01:09:11.829Z,1007.06
2024-02-13T01:10:11.796Z,1007.10
2024-02-13T01:11:11.830Z,1007.04
2024-02-13T01:12:11.787Z,1007.09
2024-02-13T01:13:11.864Z,1007.07
2024-02-13T01:14:11.817Z,1007.11
2024-02-13T01:15:11.772Z,1007.07
2024-02-13T01:16:11.734Z,1007.10
2024-02-13T01:17:11.758Z,1007.09
2024-02-13T01:18:11.838Z,1007.09
2024-02-13T01:19:11.742Z,1007.17
2024-02-13T01:20:11.701Z,1007.19
2024-02-13T01:21:11.710Z,1007.18
2024-02-13T01:22:11.688Z,1007.16
2024-02-13T01:23:11.698Z,1007.16
2024-02-13T01:24:11.664Z,1007.17
2024-02-13T01:25:11.659Z,1007.27
2024-02-13T01:26:11.671Z,1007.21
2024-02-13T01:27:11.654Z,1007.30
2024-02-13T01:28:11.610Z,1007.23
2024-02-13T01:29:11.627Z,1007.31
2024-02-13T01:30:11.569Z,1007.31
2024-02-13T01:31:11.592Z,1007.33
2024-02-13T01:32:11.602Z,1007.37
2024-02-13T01:33:11.706Z,1007.34
2024-02-13T01:34:11.720Z,1007.35
2024-02-13T01:35:11.696Z,1007.36
2024-02-13T01:36:11.535Z,1007.33
2024-02-13T01:37:11.574Z,1007.36
2024-02-13T01:38:11.533Z,1007.42
2024-02-13T01:39:11.487Z,1007.41
2024-02-13T01:40:11.476Z,1007.34
2024-02-13T01:41:11.533Z,1007.45
2024-02-13T01:42:11.506Z,1007.38
2024-02-13T01:43:11.461Z,1007.47
2024-02-13T01:44:11.466Z,1007.44
2024-02-13T01:45:11.423Z,1007.47
2024-02-13T01:46:11.441Z,1007.47
2024-02-13T01:47:11.416Z,1007.54
2024-02-13T01:48:11.671Z,1007.55
2024-02-13T01:49:11.596Z,1007.53
2024-02-13T01:50:11.440Z,1007.62
2024-02-13T01:51:11.358Z,1007.62
2024-02-13T01:52:11.336Z,1007.56
2024-02-13T01:53:11.438Z,1007.64
2024-02-13T01:54:11.387Z,1007.52
2024-02-13T01:55:11.312Z,1007.58
2024-02-13T01:56:11.321Z,1007.59
2024-02-13T01:57:11.296Z,1007.58
2024-02-13T01:58:11.289Z,1007.61
2024-02-13T01:59:11.363Z,1007.58
2024-02-13T02:00:11.253Z,1007.58
2024-02-13T02:01:11.271Z,1007.64
2024-02-13T02:02:11.270Z,1007.63
2024-02-13T02:03:11.237Z,1007.69
2024-02-13T02:04:11.273Z,1007.70
2024-02-13T02:05:11.213Z,1007.75
2024-02-13T02:06:11.365Z,1007.73
2024-02-13T02:07:11.184Z,1007.70
2024-02-13T02:08:11.189Z,1007.70
2024-02-13T02:09:11.186Z,1007.69
2024-02-13T02:10:11.151Z,1007.75
2024-02-13T02:11:11.191Z,1007.77
2024-02-13T02:12:11.122Z,1007.81
2024-02-13T02:13:11.127Z,1007.80
2024-02-13T02:14:11.219Z,1007.77
2024-02-13T02:15:11.130Z,1007.83
2024-02-13T02:16:11.080Z,1007.88
2024-02-13T02:17:11.282Z,1007.89
2024-02-13T02:18:11.216Z,1007.82
2024-02-13T02:19:11.233Z,1007.88
2024-02-13T02:20:11.108Z,1007.87
2024-02-13T02:21:11.065Z,1007.85
2024-02-13T02:22:11.011Z,1007.86
2024-02-13T02:23:11.047Z,1007.85
2024-02-13T02:24:11.020Z,1007.90
2024-02-13T02:25:11.014Z,1007.90
2024-02-13T02:26:11.046Z,1007.96
2024-02-13T02:27:10.981Z,1007.94
2024-02-13T02:28:10.953Z,1007.94
2024-02-13T02:29:11.004Z,1007.96
2024-02-13T02:30:10.962Z,1008.03
2024-02-13T02:31:10.954Z,1008.05
2024-02-13T02:32:10.998Z,1008.11
2024-02-13T02:33:11.214Z,1008.12
2024-02-13T02:34:10.941Z,1008.06
2024-02-13T02:35:11.000Z,1008.08
2024-02-13T02:36:10.889Z,1008.15
2024-02-13T02:37:10.857Z,1008.11
2024-02-13T02:38:10.920Z,1008.14
2024-02-13T02:39:10.830Z,1008.15
2024-02-13T02:40:10.825Z,1008.13
2024-02-13T02:41:10.940Z,1008.11
2024-02-13T02:42:10.831Z,1008.11
2024-02-13T02:43:10.835Z,1008.10
2024-02-13T02:44:10.832Z,1008.12
2024-02-13T02:45:10.798Z,1008.14
2024-02-13T02:46:10.833Z,1008.16
2024-02-13T02:47:10.813Z,1008.19
2024-02-13T02:48:10.917Z,1008.16
2024-02-13T02:49:10.752Z,1008.20
2024-02-13T02:50:10.771Z,1008.24
2024-02-13T02:51:10.735Z,1008.24
2024-02-13T02:52:10.692Z,1008.26
2024-02-13T02:53:10.743Z,1008.28
2024-02-13T02:54:10.670Z,1008.29
2024-02-13T02:55:10.679Z,1008.41
2024-02-13T02:56:10.717Z,1008.38
2024-02-13T02:57:10.639Z,1008.39
2024-02-13T02:58:10.627Z,1008.41
2024-02-13T02:59:10.671Z,1008.41
2024-02-13T03:00:10.615Z,1008.42
2024-02-13T03:01:10.649Z,1008.50
2024-02-13T03:02:10.627Z,1008.46
2024-02-13T03:03:10.804Z,1008.48
2024-02-13T03:04:11.807Z,1008.49
2024-02-13T03:05:10.637Z,1008.50
2024-02-13T03:06:10.641Z,1008.52
2024-02-13T03:07:10.564Z,1008.56
2024-02-13T03:08:10.575Z,1008.57
2024-02-13T03:09:10.506Z,1008.62
2024-02-13T03:10:10.506Z,1008.62
2024-02-13T03:11:10.539Z,1008.60
2024-02-13T03:12:10.499Z,1008.59
2024-02-13T03:13:10.500Z,1008.61
2024-02-13T03:14:10.508Z,1008.61
2024-02-13T03:15:10.465Z,1008.64
2024-02-13T03:16:10.434Z,1008.62
2024-02-13T03:17:10.468Z,1008.67
2024-02-13T03:18:10.523Z,1008.67
2024-02-13T03:19:10.499Z,1008.68
2024-02-13T03:20:10.407Z,1008.71
2024-02-13T03:21:10.375Z,1008.73
2024-02-13T03:22:10.390Z,1008.78
2024-02-13T03:23:10.395Z,1008.77
2024-02-13T03:24:10.343Z,1008.74
2024-02-13T03:25:10.384Z,1008.75
2024-02-13T03:26:10.373Z,1008.79
2024-02-13T03:27:10.314Z,1008.82
2024-02-13T03:28:10.337Z,1008.84
2024-02-13T03:29:10.346Z,1008.85
2024-02-13T03:30:10.325Z,1008.91
2024-02-13T03:31:10.270Z,1008.85
2024-02-13T03:32:10.270Z,1008.81
2024-02-13T03:33:10.466Z,1008.90
2024-02-13T03:34:10.382Z,1008.95
2024-02-13T03:35:10.285Z,1008.96
2024-02-13T03:36:10.263Z,1008.90
2024-02-13T03:37:10.212Z,1008.93
2024-02-13T03:38:10.241Z,1008.95
2024-02-13T03:39:10.182Z,1009.00
2024-02-13T03:40:10.176Z,1009.03
2024-02-13T03:41:10.211Z,1009.00
2024-02-13T03:42:10.157Z,1009.05
2024-02-13T03:43:10.165Z,1009.08
2024-02-13T03:44:10.157Z,1009.06
2024-02-13T03:45:10.115Z,1009.06
2024-02-13T03:46:10.116Z,1009.11
2024-02-13T03:47:10.115Z,1009.13
2024-02-13T03:48:10.230Z,1009.15
2024-02-13T03:49:10.176Z,1009.23
2024-02-13T03:50:10.226Z,1009.27
2024-02-13T03:51:10.152Z,1009.21
2024-02-13T03:52:10.046Z,1009.20
2024-02-13T03:53:10.090Z,1009.19
2024-02-13T03:54:10.105Z,1009.30
2024-02-13T03:55:10.006Z,1009.29
2024-02-13T03:56:10.014Z,1009.27
2024-02-13T03:57:09.990Z,1009.29
2024-02-13T03:58:10.010Z,1009.36
2024-02-13T03:59:11.439Z,1009.33
2024-02-13T04:00:09.968Z,1009.33
2024-02-13T04:01:10.231Z,1009.37
2024-02-13T04:02:09.947Z,1009.36
2024-02-13T04:03:09.923Z,1009.40
2024-02-13T04:04:10.035Z,1009.42
2024-02-13T04:05:09.959Z,1009.40
2024-02-13T04:06:10.048Z,1009.46
2024-02-13T04:07:09.943Z,1009.45
2024-02-13T04:08:09.958Z,1009.48
2024-02-13T04:09:09.889Z,1009.48
2024-02-13T04:10:09.879Z,1009.57
2024-02-13T04:11:10.144Z,1009.56
2024-02-13T04:12:09.831Z,1009.65
2024-02-13T04:13:09.830Z,1009.64
2024-02-13T04:14:09.864Z,1009.60
2024-02-13T04:15:09.817Z,1009.66
2024-02-13T04:16:09.786Z,1009.66
2024-02-13T04:17:09.852Z,1009.71
2024-02-13T04:18:10.056Z,1009.65
2024-02-13T04:19:09.992Z,1009.69
2024-02-13T04:20:09.876Z,1009.75
2024-02-13T04:21:10.381Z,1009.68
2024-02-13T04:22:09.819Z,1009.76
2024-02-13T04:23:09.777Z,1009.77
2024-02-13T04:24:09.692Z,1009.71
2024-02-13T04:25:09.718Z,1009.79
2024-02-13T04:26:18.215Z,1009.80
2024-02-13T04:27:10.760Z,1009.81
2024-02-13T04:28:09.662Z,1009.76
2024-02-13T04:29:09.916Z,1009.82
2024-02-13T04:30:09.703Z,1009.86
2024-02-13T04:31:09.621Z,1009.85
2024-02-13T04:32:09.661Z,1009.83
2024-02-13T04:33:09.882Z,1009.86
2024-02-13T04:34:09.677Z,1009.76
2024-02-13T04:35:09.868Z,1009.80
2024-02-13T04:36:09.571Z,1009.88
2024-02-13T04:37:09.556Z,1009.90
2024-02-13T04:38:09.662Z,1009.85
2024-02-13T04:39:09.572Z,1009.94
2024-02-13T04:40:11.694Z,1009.90
2024-02-13T04:41:09.548Z,1009.95
2024-02-13T04:42:09.549Z,1009.93
2024-02-13T04:43:09.503Z,1009.98
2024-02-13T04:44:09.495Z,1010.00
2024-02-13T04:45:09.470Z,1010.01
2024-02-13T04:46:09.472Z,1009.94
2024-02-13T04:47:09.481Z,1009.92
2024-02-13T04:48:09.622Z,1010.06
2024-02-13T04:49:09.496Z,1009.99
2024-02-13T04:50:10.866Z,1009.98
2024-02-13T04:51:09.458Z,1010.02
2024-02-13T04:52:09.407Z,1009.99
2024-02-13T04:53:09.437Z,1010.02
2024-02-13T04:54:09.423Z,1009.97
2024-02-13T04:55:09.393Z,1010.09
2024-02-13T04:56:09.372Z,1010.10
2024-02-13T04:57:09.348Z,1010.11
2024-02-13T04:58:09.369Z,1010.07
2024-02-13T04:59:09.453Z,1010.04
2024-02-13T05:00:09.341Z,1010.11
2024-02-13T05:01:09.346Z,1010.10
2024-02-13T05:02:09.316Z,1010.14
2024-02-13T05:03:09.284Z,1010.10
2024-02-13T05:04:09.300Z,1010.10
2024-02-13T05:05:09.312Z,1010.16
2024-02-13T05:06:09.322Z,1010.13
2024-02-13T05:07:09.235Z,1010.09
2024-02-13T05:08:09.299Z,1010.08
2024-02-13T05:09:09.225Z,1010.07
2024-02-13T05:10:09.229Z,1010.03
2024-02-13T05:11:09.211Z,1010.04
2024-02-13T05:12:09.197Z,1010.06
2024-02-13T05:13:09.185Z,1010.12
2024-02-13T05:14:09.166Z,1010.10
2024-02-13T05:15:09.180Z,1010.14
2024-02-13T05:16:09.156Z,1010.06
2024-02-13T05:17:09.126Z,1010.15
2024-02-13T05:18:09.244Z,1010.22
2024-02-13T05:19:09.189Z,1010.16
2024-02-13T05:20:09.133Z,1010.19
2024-02-13T05:21:09.089Z,1010.21
2024-02-13T05:22:09.072Z,1010.27
2024-02-13T05:23:09.060Z,1010.29
2024-02-13T05:24:09.049Z,1010.27
2024-02-13T05:25:09.064Z,1010.23
2024-02-13T05:26:09.028Z,1010.27
2024-02-13T05:27:09.077Z,1010.29
2024-02-13T05:28:09.014Z,1010.31
2024-02-13T05:29:08.990Z,1010.37
2024-02-13T05:30:08.984Z,1010.39
2024-02-13T05:31:08.997Z,1010.44
2024-02-13T05:32:08.969Z,1010.37
2024-02-13T05:33:09.095Z,1010.44
2024-02-13T05:34:09.029Z,1010.43
2024-02-13T05:35:08.935Z,1010.49
2024-02-13T05:36:08.944Z,1010.46
2024-02-13T05:37:08.912Z,1010.47
2024-02-13T05:38:08.896Z,1010.51
2024-02-13T05:39:08.887Z,1010.49
2024-02-13T05:40:08.883Z,1010.51
2024-02-13T05:41:08.915Z,1010.50
2024-02-13T05:42:08.857Z,1010.50
2024-02-13T05:43:08.882Z,1010.58
2024-02-13T05:44:08.839Z,1010.55
2024-02-13T05:45:08.829Z,1010.60
2024-02-13T05:46:08.854Z,1010.58
2024-02-13T05:47:08.813Z,1010.57
2024-02-13T05:48:08.936Z,1010.59
2024-02-13T05:49:08.841Z,1010.55
2024-02-13T05:50:08.983Z,1010.59
2024-02-13T05:51:08.810Z,1010.59
2024-02-13T05:52:08.756Z,1010.64
2024-02-13T05:53:08.748Z,1010.61
2024-02-13T05:54:08.772Z,1010.62
2024-02-13T05:55:08.719Z,1010.62
2024-02-13T05:56:08.704Z,1010.66
2024-02-13T05:57:08.786Z,1010.68
2024-02-13T05:58:08.695Z,1010.67
2024-02-13T05:59:08.704Z,1010.71
2024-02-13T06:00:10.792Z,1010.66
2024-02-13T06:01:08.869Z,1010.68
2024-02-13T06:02:08.674Z,1010.74
2024-02-13T06:03:08.728Z,1010.74
2024-02-13T06:04:08.655Z,1010.76
2024-02-13T06:05:08.621Z,1010.68
2024-02-13T06:06:08.665Z,1010.73
2024-02-13T06:07:08.690Z,1010.69
2024-02-13T06:08:08.626Z,1010.72
2024-02-13T06:09:08.624Z,1010.73
2024-02-13T06:10:08.643Z,1010.77
2024-02-13T06:11:08.641Z,1010.76
2024-02-13T06:12:08.647Z,1010.78
2024-02-13T06:13:08.616Z,1010.80
2024-02-13T06:14:08.582Z,1010.85
2024-02-13T06:15:08.539Z,1010.91
2024-02-13T06:16:08.526Z,1010.93
2024-02-13T06:17:08.564Z,1010.96
2024-02-13T06:18:08.638Z,1010.97
2024-02-13T06:19:08.559Z,1011.00
2024-02-13T06:20:08.504Z,1010.95
2024-02-13T06:21:08.452Z,1011.00
2024-02-13T06:22:08.439Z,1011.04
2024-02-13T06:23:08.511Z,1011.05
2024-02-13T06:24:08.526Z,1011.05
2024-02-13T06:25:08.429Z,1011.10
2024-02-13T06:26:08.420Z,1011.09
2024-02-13T06:27:08.446Z,1011.09
2024-02-13T06:28:08.393Z,1011.11
2024-02-13T06:29:08.409Z,1011.17
2024-02-13T06:30:08.438Z,1011.14
2024-02-13T06:31:08.438Z,1011.22
2024-02-13T06:32:08.331Z,1011.18
2024-02-13T06:33:08.676Z,1011.18
2024-02-13T06:34:08.476Z,1011.16
2024-02-13T06:35:08.313Z,1011.12
2024-02-13T06:36:08.346Z,1011.19
2024-02-13T06:37:08.315Z,1011.22
2024-02-13T06:38:08.314Z,1011.22
2024-02-13T06:39:08.276Z,1011.21
2024-02-13T06:40:08.273Z,1011.16
2024-02-13T06:41:08.232Z,1011.21
2024-02-13T06:42:08.398Z,1011.20
2024-02-13T06:43:08.273Z,1011.21
2024-02-13T06:44:08.224Z,1011.20
2024-02-13T06:45:08.195Z,1011.27
2024-02-13T06:46:08.328Z,1011.29
2024-02-13T06:47:08.245Z,1011.27
2024-02-13T06:48:08.440Z,1011.27
2024-02-13T06:49:08.295Z,1011.32
2024-02-13T06:50:08.133Z,1011.33
2024-02-13T06:51:08.220Z,1011.34
2024-02-13T06:52:08.151Z,1011.35
2024-02-13T06:53:08.105Z,1011.36
2024-02-13T06:54:08.181Z,1011.40
2024-02-13T06:55:08.071Z,1011.45
2024-02-13T06:56:08.057Z,1011.47
2024-02-13T06:57:08.045Z,1011.45
2024-02-13T06:58:08.041Z,1011.39
2024-02-13T06:59:08.057Z,1011.45
2024-02-13T07:00:08.148Z,1011.43
2024-02-13T07:01:08.030Z,1011.52
2024-02-13T07:02:08.000Z,1011.48
2024-02-13T07:03:08.175Z,1011.46
2024-02-13T07:04:08.057Z,1011.54
2024-02-13T07:05:08.103Z,1011.55
2024-02-13T07:06:08.028Z,1011.56
2024-02-13T07:07:19.064Z,1011.54
2024-02-13T07:08:09.017Z,1011.69
2024-02-13T07:09:08.213Z,1011.76
2024-02-13T07:10:08.041Z,1011.75
2024-02-13T07:11:07.967Z,1011.70
2024-02-13T07:12:07.976Z,1011.73
2024-02-13T07:13:08.038Z,1011.70
2024-02-13T07:14:08.000Z,1011.72
2024-02-13T07:15:08.309Z,1011.73
2024-02-13T07:16:07.841Z,1011.77
2024-02-13T07:17:07.853Z,1011.73
2024-02-13T07:18:08.000Z,1011.69
2024-02-13T07:19:08.074Z,1011.71
2024-02-13T07:20:07.869Z,1011.71
2024-02-13T07:21:08.454Z,1011.76
2024-02-13T07:22:07.783Z,1011.72
2024-02-13T07:23:07.807Z,1011.78
2024-02-13T07:24:07.986Z,1011.78
2024-02-13T07:25:07.796Z,1011.71
2024-02-13T07:26:07.733Z,1011.76
2024-02-13T07:27:07.730Z,1011.80
2024-02-13T07:28:07.738Z,1011.78
2024-02-13T07:29:07.712Z,1011.76
2024-02-13T07:30:07.815Z,1011.82
2024-02-13T07:31:07.714Z,1011.82
2024-02-13T07:32:10.576Z,1011.81
2024-02-13T07:33:07.824Z,1011.83
2024-02-13T07:34:07.786Z,1011.82
2024-02-13T07:35:07.678Z,1011.87
2024-02-13T07:36:07.678Z,1011.88
2024-02-13T07:37:07.631Z,1011.93
2024-02-13T07:38:07.672Z,1011.85
2024-02-13T07:39:07.886Z,1011.95
2024-02-13T07:40:07.655Z,1011.91
2024-02-13T07:41:07.826Z,1011.91
2024-02-13T07:42:07.756Z,1011.90
2024-02-13T07:43:07.610Z,1012.03
2024-02-13T07:44:07.548Z,1011.94
2024-02-13T07:45:07.542Z,1012.03
2024-02-13T07:46:07.544Z,1011.98
2024-02-13T07:47:07.684Z,1012.05
2024-02-13T07:48:07.638Z,1012.06
2024-02-13T07:49:07.616Z,1012.00
2024-02-13T07:50:07.481Z,1012.06
2024-02-13T07:51:07.494Z,1012.05
2024-02-13T07:52:07.464Z,1012.08
2024-02-13T07:53:08.207Z,1012.09
2024-02-13T07:54:07.479Z,1012.06
2024-02-13T07:55:07.493Z,1012.10
2024-02-13T07:56:07.406Z,1012.11
2024-02-13T07:57:07.406Z,1012.15
2024-02-13T07:58:07.391Z,1012.09
2024-02-13T07:59:07.622Z,1012.16
2024-02-13T08:00:07.366Z,1012.13
2024-02-13T08:01:07.372Z,1012.01
2024-02-13T08:02:07.356Z,1012.14
2024-02-13T08:03:07.358Z,1012.07
2024-02-13T08:04:07.472Z,1012.11
2024-02-13T08:05:07.480Z,1012.04
2024-02-13T08:06:07.399Z,1012.08
2024-02-13T08:07:07.320Z,1012.10
2024-02-13T08:08:08.618Z,1012.10
2024-02-13T08:09:07.324Z,1012.11
2024-02-13T08:10:07.260Z,1012.13
2024-02-13T08:11:07.245Z,1012.15
2024-02-13T08:12:07.583Z,1012.18
2024-02-13T08:13:07.261Z,1012.16
2024-02-13T08:14:07.238Z,1012.18
2024-02-13T08:15:07.305Z,1012.19
2024-02-13T08:16:07.196Z,1012.24
2024-02-13T08:17:07.187Z,1012.20
2024-02-13T08:18:07.237Z,1012.17
2024-02-13T08:19:07.199Z,1012.24
2024-02-13T08:20:07.226Z,1012.24
2024-02-13T08:21:07.199Z,1012.18
2024-02-13T08:22:07.162Z,1012.22
2024-02-13T08:23:07.139Z,1012.28
2024-02-13T08:24:07.110Z,1012.30
2024-02-13T08:25:07.119Z,1012.28
2024-02-13T08:26:07.096Z,1012.26
2024-02-13T08:27:07.395Z,1012.26
2024-02-13T08:28:07.097Z,1012.30
2024-02-13T08:29:07.057Z,1012.23
2024-02-13T08:30:07.120Z,1012.26
2024-02-13T08:31:07.037Z,1012.25
2024-02-13T08:32:07.029Z,1012.25
2024-02-13T08:33:07.209Z,1012.27
2024-02-13T08:34:07.186Z,1012.27
2024-02-13T08:35:07.160Z,1012.23
2024-02-13T08:36:07.058Z,1012.25
2024-02-13T08:37:07.004Z,1012.27
2024-02-13T08:38:06.973Z,1012.29
2024-02-13T08:39:07.010Z,1012.27
2024-02-13T08:40:06.979Z,1012.32
2024-02-13T08:41:06.950Z,1012.29
2024-02-13T08:42:06.988Z,1012.33
2024-02-13T08:43:06.926Z,1012.30
2024-02-13T08:44:06.920Z,1012.30
2024-02-13T08:45:06.911Z,1012.31
2024-02-13T08:46:06.921Z,1012.33
2024-02-13T08:47:06.857Z,1012.42
2024-02-13T08:48:06.978Z,1012.44
2024-02-13T08:49:07.189Z,1012.43
2024-02-13T08:50:07.082Z,1012.42
2024-02-13T08:51:07.035Z,1012.43
2024-02-13T08:52:06.814Z,1012.40
2024-02-13T08:53:06.801Z,1012.45
2024-02-13T08:54:06.884Z,1012.51
2024-02-13T08:55:06.808Z,1012.40
2024-02-13T08:56:06.811Z,1012.42
2024-02-13T08:57:06.761Z,1012.43
2024-02-13T08:58:06.735Z,1012.40
2024-02-13T08:59:06.767Z,1012.45
2024-02-13T09:00:06.775Z,1012.47
2024-02-13T09:01:06.774Z,1012.50
2024-02-13T09:02:06.694Z,1012.43
2024-02-13T09:03:06.686Z,1012.52
2024-02-13T09:04:06.716Z,1012.52
2024-02-13T09:05:06.766Z,1012.49
2024-02-13T09:06:06.761Z,1012.52
2024-02-13T09:07:06.659Z,1012.56
2024-02-13T09:08:06.656Z,1012.49
2024-02-13T09:09:06.717Z,1012.47
2024-02-13T09:10:06.628Z,1012.51
2024-02-13T09:11:06.630Z,1012.49
2024-02-13T09:12:06.659Z,1012.50
2024-02-13T09:13:06.644Z,1012.55
2024-02-13T09:14:06.562Z,1012.47
2024-02-13T09:15:06.558Z,1012.46
2024-02-13T09:16:07.231Z,1012.52
2024-02-13T09:17:06.568Z,1012.56
2024-02-13T09:18:06.810Z,1012.56
2024-02-13T09:19:06.658Z,1012.56
2024-02-13T09:20:06.522Z,1012.61
2024-02-13T09:21:06.514Z,1012.56
2024-02-13T09:22:06.477Z,1012.59
2024-02-13T09:23:06.467Z,1012.57
2024-02-13T09:24:06.580Z,1012.60
2024-02-13T09:25:06.475Z,1012.56
2024-02-13T09:26:06.439Z,1012.66
2024-02-13T09:27:06.480Z,1012.60
2024-02-13T09:28:06.439Z,1012.68
2024-02-13T09:29:06.402Z,1012.70
2024-02-13T09:30:06.443Z,1012.70
2024-02-13T09:31:06.405Z,1012.70
2024-02-13T09:32:06.391Z,1012.77
2024-02-13T09:33:06.436Z,1012.72
2024-02-13T09:34:06.529Z,1012.83
2024-02-13T09:35:06.342Z,1012.79
2024-02-13T09:36:06.349Z,1012.84
2024-02-13T09:37:06.318Z,1012.79
2024-02-13T09:38:06.331Z,1012.81
2024-02-13T09:39:06.327Z,1012.85
2024-02-13T09:40:06.299Z,1012.86
2024-02-13T09:41:06.282Z,1012.87
2024-02-13T09:42:06.314Z,1012.93
2024-02-13T09:43:06.385Z,1012.88
2024-02-13T09:44:06.291Z,1012.88
2024-02-13T09:45:06.317Z,1012.91
2024-02-13T09:46:06.216Z,1012.91
2024-02-13T09:47:06.220Z,1012.88
2024-02-13T09:48:06.326Z,1012.91
2024-02-13T09:49:06.407Z,1012.94
2024-02-13T09:50:06.188Z,1012.97
2024-02-13T09:51:06.231Z,1012.94
2024-02-13T09:52:06.155Z,1012.91
2024-02-13T09:53:06.151Z,1012.95
2024-02-13T09:54:06.304Z,1012.97
2024-02-13T09:55:06.133Z,1012.99
2024-02-13T09:56:06.108Z,1013.09
2024-02-13T09:57:06.182Z,1012.92
2024-02-13T09:58:06.112Z,1013.05
2024-02-13T09:59:06.128Z,1013.02
2024-02-13T10:00:06.111Z,1013.02
2024-02-13T10:01:06.068Z,1013.00
2024-02-13T10:02:06.074Z,1013.10
2024-02-13T10:03:06.152Z,1013.10
2024-02-13T10:04:06.103Z,1013.06
2024-02-13T10:05:06.021Z,1013.04
2024-02-13T10:06:06.127Z,1013.13
2024-02-13T10:07:06.097Z,1013.17
2024-02-13T10:08:06.000Z,1013.06
2024-02-13T10:09:06.032Z,1013.08
2024-02-13T10:10:05.968Z,1013.14
2024-02-13T10:11:05.973Z,1013.07
2024-02-13T10:12:05.987Z,1013.18
2024-02-13T10:13:05.926Z,1013.19
2024-02-13T10:14:05.934Z,1013.15
2024-02-13T10:15:05.996Z,1013.18
2024-02-13T10:16:05.912Z,1013.22
2024-02-13T10:17:05.882Z,1013.16
2024-02-13T10:18:05.924Z,1013.13
2024-02-13T10:19:05.892Z,1013.17
2024-02-13T10:20:05.908Z,1013.16
2024-02-13T10:21:05.953Z,1013.22
2024-02-13T10:22:05.826Z,1013.21
2024-02-13T10:23:05.854Z,1013.23
2024-02-13T10:24:05.976Z,1013.18
2024-02-13T10:25:05.822Z,1013.27
2024-02-13T10:26:05.817Z,1013.27
2024-02-13T10:27:05.842Z,1013.22
2024-02-13T10:28:05.761Z,1013.26
2024-02-13T10:29:05.792Z,1013.30
2024-02-13T10:30:05.817Z,1013.31
2024-02-13T10:31:05.756Z,1013.30
2024-02-13T10:32:05.727Z,1013.33
2024-02-13T10:33:05.810Z,1013.34
2024-02-13T10:34:05.716Z,1013.31
2024-02-13T10:35:05.848Z,1013.28
2024-02-13T10:36:05.744Z,1013.33
2024-02-13T10:37:05.662Z,1013.36
2024-02-13T10:38:05.661Z,1013.36
2024-02-13T10:39:05.685Z,1013.31
2024-02-13T10:40:05.632Z,1013.39
2024-02-13T10:41:05.640Z,1013.36
2024-02-13T10:42:05.613Z,1013.37
2024-02-13T10:43:05.628Z,1013.35
2024-02-13T10:44:05.586Z,1013.34
2024-02-13T10:45:05.684Z,1013.33
2024-02-13T10:46:05.564Z,1013.36
2024-02-13T10:47:05.578Z,1013.36
2024-02-13T10:48:05.653Z,1013.39
2024-02-13T10:49:05.612Z,1013.39
2024-02-13T10:50:05.625Z,1013.39
2024-02-13T10:51:05.605Z,1013.38
2024-02-13T10:52:05.518Z,1013.36
2024-02-13T10:53:05.487Z,1013.38
2024-02-13T10:54:05.503Z,1013.35
2024-02-13T10:55:05.492Z,1013.38
2024-02-13T10:56:05.467Z,1013.38
2024-02-13T10:57:05.461Z,1013.31
2024-02-13T10:58:13.846Z,1013.41
2024-02-13T10:59:06.423Z,1013.33
2024-02-13T11:00:05.503Z,1013.39
2024-02-13T11:01:05.617Z,1013.43
2024-02-13T11:02:05.765Z,1013.37
2024-02-13T11:03:05.451Z,1013.43
2024-02-13T11:04:05.451Z,1013.35
2024-02-13T11:05:05.432Z,1013.43
2024-02-13T11:06:05.441Z,1013.42
2024-02-13T11:07:05.381Z,1013.43
2024-02-13T11:08:05.326Z,1013.48
2024-02-13T11:09:05.412Z,1013.58
2024-02-13T11:10:05.306Z,1013.47
2024-02-13T11:11:05.319Z,1013.46
2024-02-13T11:12:05.378Z,1013.45
2024-02-13T11:13:05.300Z,1013.42
2024-02-13T11:14:05.273Z,1013.46
2024-02-13T11:15:05.388Z,1013.47
2024-02-13T11:16:05.264Z,1013.55
2024-02-13T11:17:05.234Z,1013.51
2024-02-13T11:18:05.315Z,1013.49
2024-02-13T11:19:05.413Z,1013.50
2024-02-13T11:20:05.342Z,1013.45
2024-02-13T11:21:05.280Z,1013.53
2024-02-13T11:22:05.182Z,1013.41
2024-02-13T11:23:05.166Z,1013.42
2024-02-13T11:24:05.272Z,1013.40
2024-02-13T11:25:05.166Z,1013.41
2024-02-13T11:26:05.138Z,1013.39
2024-02-13T11:27:19.520Z,1013.35
2024-02-13T11:28:06.111Z,1013.35
2024-02-13T11:29:05.094Z,1013.37
2024-02-13T11:30:05.130Z,1013.45
2024-02-13T11:31:05.077Z,1013.46
2024-02-13T11:32:05.092Z,1013.46
2024-02-13T11:33:05.180Z,1013.44
2024-02-13T11:34:05.359Z,1013.51
2024-02-13T11:35:05.150Z,1013.46
2024-02-13T11:36:05.063Z,1013.51
2024-02-13T11:37:06.679Z,1013.47
2024-02-13T11:38:05.000Z,1013.47
2024-02-13T11:39:05.055Z,1013.42
2024-02-13T11:40:04.999Z,1013.47
2024-02-13T11:41:04.967Z,1013.46
2024-02-13T11:42:04.977Z,1013.44
2024-02-13T11:43:04.954Z,1013.47
2024-02-13T11:44:04.929Z,1013.41
2024-02-13T11:45:05.068Z,1013.41
2024-02-13T11:46:04.914Z,1013.44
2024-02-13T11:47:04.921Z,1013.34
2024-02-13T11:48:05.009Z,1013.41
2024-02-13T11:49:05.012Z,1013.36
2024-02-13T11:50:04.953Z,1013.30
2024-02-13T11:51:05.232Z,1013.29
2024-02-13T11:52:04.876Z,1013.34
2024-02-13T11:53:04.836Z,1013.40
2024-02-13T11:54:04.841Z,1013.41
2024-02-13T11:55:04.814Z,1013.42
2024-02-13T11:56:04.810Z,1013.37
2024-02-13T11:57:04.888Z,1013.44
2024-02-13T11:58:04.790Z,1013.45
2024-02-13T11:59:04.781Z,1013.35
2024-02-13T12:00:04.787Z,1013.38
2024-02-13T12:01:04.935Z,1013.38
2024-02-13T12:02:04.762Z,1013.40
2024-02-13T12:03:04.766Z,1013.41
2024-02-13T12:04:04.781Z,1013.36
2024-02-13T12:05:04.704Z,1013.42